Current | Forecast
Updated: 6:00 PM CET on February 21, 2018
Observed at Santander Airport, Spain
Temperature 8°C
Windchill 6°C
Humidity 66%
Dew Point 2°C
Wind East at 9 km/h
Pressure 1018 hPa (Steady)
Conditions Scattered Clouds
Visibility 10.0 kilometers
UV 0 out of 16
Clouds (FEW) : 1066 m
Scattered Clouds (SCT) : 1828 m
Yesterday's Maximum 13°C
Yesterday's Minimum 11°C approx.
Yesterday's Heating Degree Days 11 approx.
Sunrise8:04 AM CET
Sunset6:52 PM CET
Moon Rise11:04 AM CET
Moon Set
Moon PhaseMoon Phase
Waxing Crescent
Raw METARMETAR LEXJ 211700Z 10005KT 9999 FEW035 SCT060 08/02 Q1018


Monday
. High: 69° F.
Tuesday
. High: 73° F.
Wednesday
. High: 59° F.
Thursday
. High: 62° F.
Friday
. High: 71° F.
Saturday
. High: 69° F.
Sunday
. High: 66° F.
Monday
. High: 73° F.

Click here for Marine Information
Scientific forecaster discussion (NWS)

Units: English | Metric

Find the Weather for any City, State or Zipcode, or Country:

U.S. State List | Severe Weather | Tropical Storms | Ski Conditions
United States | Canada | Central America | South America | Asia | Europe | Australia | Africa | Islands

Weather Underground

© Copyright 2018
The Weather Company, LLC